Time;durP1;ratioP1;P1;durP2;ratioP2;P2;SDS_P1;SDS_P2;PMS_P1;PMS_P2;Temp;Humidity;BMP_temperature;BMP_pressure;BME280_temperature;BME280_humidity;BME280_pressure;Samples;Min_cycle;Max_cycle;Signal;HPM_P1;HPM_P2
2022/02/18 00:02:10;;;;;;;0.70;0.37;;;;;;;5.23;76.64;97223.50;1782630;78;21043;-57
2022/02/18 00:04:37;;;;;;;0.80;0.40;;;;;;;5.24;76.63;97219.02;1763194;79;21014;-55
2022/02/18 00:07:03;;;;;;;0.50;0.30;;;;;;;5.25;76.67;97229.59;1756614;79;21434;-56
2022/02/18 00:09:31;;;;;;;0.70;0.33;;;;;;;5.29;76.66;97230.22;1755151;80;21082;-55
2022/02/18 00:11:58;;;;;;;0.70;0.30;;;;;;;5.31;76.64;97229.66;1751036;80;21731;-56
2022/02/18 00:14:24;;;;;;;2.30;0.40;;;;;;;5.32;76.66;97232.22;1757494;80;21519;-57
2022/02/18 00:16:50;;;;;;;0.60;0.30;;;;;;;5.32;76.70;97236.22;1756487;79;21561;-58
2022/02/18 00:19:18;;;;;;;0.57;0.30;;;;;;;5.30;76.88;97238.12;1751808;79;21054;-54
2022/02/18 00:21:48;;;;;;;1.30;0.30;;;;;;;5.30;77.03;97243.94;1755421;79;21134;-55
2022/02/18 00:24:14;;;;;;;0.40;0.20;;;;;;;5.30;77.33;97246.13;1755891;80;21498;-55
2022/02/18 00:26:41;;;;;;;1.47;0.30;;;;;;;5.30;77.52;97242.61;1754905;80;21037;-54
2022/02/18 00:29:07;;;;;;;2.90;0.30;;;;;;;5.32;77.69;97250.03;1751552;80;21153;-55
2022/02/18 00:31:33;;;;;;;4.10;0.33;;;;;;;5.33;77.86;97253.94;1756501;80;21114;-55
2022/02/18 00:34:01;;;;;;;0.57;0.30;;;;;;;5.30;78.07;97260.80;1757815;80;21106;-53
2022/02/18 00:36:27;;;;;;;0.60;0.33;;;;;;;5.28;78.34;97255.19;1762487;80;21532;-54
2022/02/18 00:38:53;;;;;;;4.33;0.40;;;;;;;5.26;78.50;97259.79;1762646;80;21564;-55
2022/02/18 00:41:20;;;;;;;1.17;0.40;;;;;;;5.24;78.63;97262.55;1763397;80;21083;-56
2022/02/18 00:43:46;;;;;;;0.67;0.30;;;;;;;5.23;78.85;97271.50;1760064;80;21141;-57
2022/02/18 00:46:13;;;;;;;0.50;0.30;;;;;;;5.20;79.07;97269.50;1763273;80;21065;-55
2022/02/18 00:48:39;;;;;;;0.80;0.20;;;;;;;5.18;79.27;97269.63;1769070;78;21084;-53
2022/02/18 00:51:06;;;;;;;0.90;0.23;;;;;;;5.18;79.52;97278.11;1768778;79;20887;-55
2022/02/18 00:53:33;;;;;;;0.90;0.40;;;;;;;5.19;79.78;97275.83;1764986;78;20932;-52
2022/02/18 00:56:00;;;;;;;0.70;0.30;;;;;;;5.19;79.83;97276.65;1770216;80;20927;-55
2022/02/18 00:58:27;;;;;;;0.40;0.20;;;;;;;5.19;79.95;97282.48;1765506;80;21003;-55
2022/02/18 01:00:53;;;;;;;0.60;0.30;;;;;;;5.18;80.12;97283.44;1764766;80;22175;-54
2022/02/18 01:03:20;;;;;;;0.77;0.37;;;;;;;5.15;80.28;97293.83;1757129;80;21129;-55
2022/02/18 01:05:49;;;;;;;0.60;0.30;;;;;;;5.14;80.33;97295.25;1758067;79;21407;-53
2022/02/18 01:08:17;;;;;;;0.50;0.30;;;;;;;5.10;80.51;97298.61;1735206;80;21402;-55
2022/02/18 01:10:43;;;;;;;0.77;0.40;;;;;;;5.08;80.61;97300.52;1743637;79;21503;-57
2022/02/18 01:13:10;;;;;;;0.60;0.37;;;;;;;5.06;80.80;97307.75;1723061;80;21771;-54
2022/02/18 01:15:36;;;;;;;0.70;0.30;;;;;;;5.04;80.92;97304.32;1743567;79;21692;-56
2022/02/18 01:18:04;;;;;;;1.30;0.40;;;;;;;5.05;81.07;97310.51;1741712;79;21100;-56
2022/02/18 01:20:31;;;;;;;0.60;0.40;;;;;;;5.05;81.23;97314.03;1760758;79;20968;-55
2022/02/18 01:22:58;;;;;;;0.80;0.40;;;;;;;5.06;81.30;97323.75;1741690;79;21098;-53
2022/02/18 01:25:25;;;;;;;0.40;0.30;;;;;;;5.06;81.42;97330.41;1731003;80;21059;-59
2022/02/18 01:27:55;;;;;;;0.63;0.30;;;;;;;5.05;81.43;97323.37;1743984;79;21103;-55
2022/02/18 01:30:19;;;;;;;0.70;0.37;;;;;;;5.04;81.53;97325.66;1730408;80;21250;-57
2022/02/18 01:32:45;;;;;;;1.23;0.30;;;;;;;5.05;81.61;97336.70;1732323;80;22298;-56
2022/02/18 01:35:15;;;;;;;0.40;0.30;;;;;;;5.05;81.65;97342.03;1741667;79;21425;-55
2022/02/18 01:37:41;;;;;;;1.23;0.43;;;;;;;5.03;81.71;97339.94;1736836;80;21135;-56
2022/02/18 01:40:10;;;;;;;0.93;0.40;;;;;;;5.00;81.77;97344.15;1749247;79;20918;-56
2022/02/18 01:42:37;;;;;;;0.90;0.40;;;;;;;4.98;81.85;97354.05;1759510;79;21474;-57
2022/02/18 01:45:05;;;;;;;1.60;0.50;;;;;;;4.95;81.94;97357.75;1743943;79;21056;-56
2022/02/18 01:47:32;;;;;;;0.93;0.43;;;;;;;4.96;81.99;97357.28;1729267;81;21022;-53
2022/02/18 01:49:59;;;;;;;0.70;0.30;;;;;;;4.94;82.02;97363.18;1732502;80;22728;-55
2022/02/18 01:52:33;;;;;;;0.60;0.37;;;;;;;4.91;82.09;97372.25;1735702;80;21360;-57
2022/02/18 01:54:59;;;;;;;0.40;0.30;;;;;;;4.89;82.13;97379.48;1730529;80;21080;-57
2022/02/18 01:57:26;;;;;;;0.60;0.30;;;;;;;4.88;82.18;97386.23;1756186;79;21059;-57
2022/02/18 01:59:53;;;;;;;0.83;0.30;;;;;;;4.89;82.16;97397.28;1756334;79;21666;-53
2022/02/18 02:02:20;;;;;;;0.30;0.20;;;;;;;4.89;82.15;97397.28;1759138;79;21123;-55
2022/02/18 02:04:46;;;;;;;0.60;0.30;;;;;;;4.89;82.06;97403.94;1735442;79;21061;-56
2022/02/18 02:07:14;;;;;;;0.60;0.30;;;;;;;4.87;81.96;97409.36;1729580;80;21126;-54
2022/02/18 02:09:43;;;;;;;0.60;0.20;;;;;;;4.87;81.94;97413.36;1733641;80;21105;-57
2022/02/18 02:12:09;;;;;;;0.60;0.30;;;;;;;4.88;81.99;97419.55;1732703;80;21647;-55
2022/02/18 02:14:39;;;;;;;0.53;0.30;;;;;;;4.88;81.97;97433.73;1728831;80;21100;-57
2022/02/18 02:17:06;;;;;;;0.50;0.20;;;;;;;4.87;81.90;97436.49;1732540;80;21116;-56
2022/02/18 02:19:33;;;;;;;0.30;0.20;;;;;;;4.84;81.91;97436.70;1731921;80;21119;-54
2022/02/18 02:22:00;;;;;;;0.30;0.20;;;;;;;4.84;81.84;97450.03;1730388;80;21088;-53
2022/02/18 02:24:26;;;;;;;0.37;0.20;;;;;;;4.81;81.73;97451.54;1728952;80;21107;-56
2022/02/18 02:26:53;;;;;;;0.20;0.10;;;;;;;4.79;81.61;97451.62;1733177;80;21613;-56
2022/02/18 02:29:20;;;;;;;0.77;0.20;;;;;;;4.74;81.47;97467.06;1731094;80;22028;-53
2022/02/18 02:31:47;;;;;;;0.90;0.20;;;;;;;4.69;81.48;97474.92;1733683;80;21174;-57
2022/02/18 02:34:14;;;;;;;0.43;0.20;;;;;;;4.65;81.56;97487.59;1732689;80;21622;-54
2022/02/18 02:36:42;;;;;;;0.17;0.10;;;;;;;4.65;81.53;97492.07;1733797;80;22143;-55
2022/02/18 02:39:10;;;;;;;0.20;0.10;;;;;;;4.61;81.54;97506.04;1704241;80;22818;-54
2022/02/18 02:41:38;;;;;;;0.87;0.10;;;;;;;4.60;81.63;97517.64;1731311;80;21598;-55
2022/02/18 02:44:05;;;;;;;0.10;0.10;;;;;;;4.56;81.39;97540.97;1729991;80;21068;-59
2022/02/18 02:46:35;;;;;;;0.20;0.10;;;;;;;4.51;81.29;97551.02;1737908;80;21029;-58
2022/02/18 02:49:04;;;;;;;0.17;0.10;;;;;;;4.44;81.29;97560.31;1733699;80;21128;-56
2022/02/18 02:51:32;;;;;;;0.93;0.10;;;;;;;4.38;81.07;97566.02;1733187;80;21157;-54
2022/02/18 02:53:58;;;;;;;0.10;0.07;;;;;;;4.31;80.87;97579.30;1737240;80;21462;-54
2022/02/18 02:56:25;;;;;;;0.23;0.10;;;;;;;4.26;80.96;97587.15;1739413;80;21416;-56
2022/02/18 02:58:51;;;;;;;0.10;0.07;;;;;;;4.21;80.81;97593.22;1733028;80;21405;-56
2022/02/18 03:01:20;;;;;;;0.20;0.10;;;;;;;4.17;80.63;97602.70;1729668;80;21076;-55
2022/02/18 03:03:48;;;;;;;0.20;0.10;;;;;;;4.12;80.67;97608.78;1737253;80;21104;-56
2022/02/18 03:06:14;;;;;;;0.50;0.20;;;;;;;4.05;80.33;97613.20;1729592;80;21028;-55
2022/02/18 03:08:40;;;;;;;0.20;0.10;;;;;;;4.00;80.25;97621.90;1734034;80;21145;-56
2022/02/18 03:11:14;;;;;;;0.37;0.10;;;;;;;3.94;80.17;97620.92;1731948;80;21353;-57
2022/02/18 03:13:48;;;;;;;0.20;0.10;;;;;;;3.89;80.02;97622.98;1734226;80;20977;-56
2022/02/18 03:16:15;;;;;;;0.30;0.10;;;;;;;3.85;79.89;97632.07;1730520;80;21090;-58
2022/02/18 03:18:43;;;;;;;0.17;0.10;;;;;;;3.82;79.79;97644.23;1735729;80;21014;-57
2022/02/18 03:21:09;;;;;;;0.13;0.10;;;;;;;3.73;79.65;97643.80;1733849;80;21010;-54
2022/02/18 03:23:36;;;;;;;0.30;0.10;;;;;;;3.65;79.60;97648.67;1738837;80;21029;-58
2022/02/18 03:26:02;;;;;;;0.33;0.10;;;;;;;3.58;79.66;97653.90;1737473;80;20926;-58
2022/02/18 03:28:29;;;;;;;0.20;0.10;;;;;;;3.50;79.86;97657.91;1733260;80;22316;-56
2022/02/18 03:30:56;;;;;;;0.20;0.10;;;;;;;3.43;80.03;97658.72;1737648;80;20918;-57
2022/02/18 03:33:25;;;;;;;0.10;0.00;;;;;;;3.40;80.18;97673.52;1738350;80;20926;-54
2022/02/18 03:35:51;;;;;;;0.20;0.10;;;;;;;3.36;80.26;97675.94;1737183;80;20986;-55
2022/02/18 03:38:18;;;;;;;0.20;0.10;;;;;;;3.34;80.42;97672.02;1739459;80;20969;-54
2022/02/18 03:40:47;;;;;;;0.17;0.10;;;;;;;3.37;80.46;97677.19;1735988;80;22268;-55
2022/02/18 03:43:16;;;;;;;0.20;0.10;;;;;;;3.38;80.46;97682.04;1735808;80;20910;-57
2022/02/18 03:45:48;;;;;;;0.10;0.10;;;;;;;3.39;80.53;97685.09;1714517;80;21010;-57
2022/02/18 03:48:16;;;;;;;0.20;0.10;;;;;;;3.40;80.64;97684.98;1735786;80;20907;-55
2022/02/18 03:50:44;;;;;;;0.40;0.10;;;;;;;3.40;80.59;97686.31;1735866;80;20977;-54
2022/02/18 03:53:11;;;;;;;0.40;0.20;;;;;;;3.39;80.53;97684.63;1736714;80;21092;-57
2022/02/18 03:55:39;;;;;;;0.40;0.20;;;;;;;3.32;80.50;97687.66;1736070;80;20974;-54
2022/02/18 03:58:06;;;;;;;0.50;0.20;;;;;;;3.25;80.64;97691.58;1733434;80;20998;-54
2022/02/18 04:00:34;;;;;;;0.20;0.10;;;;;;;3.22;80.64;97702.39;1707808;80;21054;-57
2022/02/18 04:03:01;;;;;;;0.30;0.20;;;;;;;3.16;80.71;97701.35;1733937;80;21000;-57
2022/02/18 04:05:41;;;;;;;0.27;0.10;;;;;;;3.13;80.85;97705.52;1706400;79;21236;-54
2022/02/18 04:08:10;;;;;;;0.40;0.20;;;;;;;3.11;80.85;97703.39;1761122;79;21086;-53
2022/02/18 04:10:37;;;;;;;0.33;0.10;;;;;;;3.10;80.87;97713.63;1756706;79;21130;-57
2022/02/18 04:13:05;;;;;;;0.10;0.00;;;;;;;3.11;80.85;97716.22;1757107;79;21074;-56
2022/02/18 04:15:33;;;;;;;0.10;0.03;;;;;;;3.12;80.81;97729.05;1758363;78;21141;-52
2022/02/18 04:17:59;;;;;;;0.20;0.10;;;;;;;3.11;80.81;97733.50;1758831;79;21132;-55
2022/02/18 04:20:28;;;;;;;0.37;0.10;;;;;;;3.09;80.78;97732.70;1759821;79;21323;-52
2022/02/18 04:22:56;;;;;;;0.40;0.20;;;;;;;3.07;80.71;97747.00;1758216;79;20979;-55
2022/02/18 04:25:30;;;;;;;0.23;0.13;;;;;;;3.02;80.75;97745.45;1760032;79;21090;-54
2022/02/18 04:27:59;;;;;;;0.40;0.20;;;;;;;2.98;80.79;97758.48;1757332;79;21157;-56
2022/02/18 04:30:26;;;;;;;0.40;0.33;;;;;;;2.95;80.78;97758.66;1759415;79;21292;-53
2022/02/18 04:32:53;;;;;;;0.33;0.30;;;;;;;2.93;80.85;97764.51;1759879;79;21055;-54
2022/02/18 04:35:19;;;;;;;0.30;0.20;;;;;;;2.90;80.95;97771.29;1758347;79;21039;-57
2022/02/18 04:37:45;;;;;;;0.30;0.20;;;;;;;2.90;81.04;97771.29;1757678;79;21596;-54
2022/02/18 04:40:13;;;;;;;1.03;0.20;;;;;;;2.89;81.11;97780.20;1756745;79;21072;-54
2022/02/18 04:42:41;;;;;;;0.80;0.20;;;;;;;2.91;81.18;97782.31;1758560;79;21120;-54
2022/02/18 04:45:08;;;;;;;0.30;0.20;;;;;;;2.92;81.18;97781.85;1757769;79;21042;-57
2022/02/18 04:47:38;;;;;;;0.47;0.27;;;;;;;2.92;81.17;97777.86;1757806;79;21062;-54
2022/02/18 04:50:06;;;;;;;1.00;0.40;;;;;;;2.94;81.17;97789.29;1763568;79;22096;-53
2022/02/18 04:52:36;;;;;;;0.40;0.30;;;;;;;2.94;81.14;97801.25;1761725;79;21117;-55
2022/02/18 04:55:06;;;;;;;1.80;0.30;;;;;;;2.92;81.22;97813.27;1755888;80;21073;-57
2022/02/18 04:57:36;;;;;;;0.33;0.20;;;;;;;2.90;81.16;97818.27;1760917;79;22033;-56
2022/02/18 05:00:07;;;;;;;0.50;0.20;;;;;;;2.88;81.11;97825.47;1758772;80;21018;-56
2022/02/18 05:02:34;;;;;;;0.30;0.10;;;;;;;2.84;81.09;97829.19;1756720;79;21062;-57
2022/02/18 05:05:01;;;;;;;1.17;0.20;;;;;;;2.79;81.10;97833.41;1779322;78;21051;-57
2022/02/18 05:07:28;;;;;;;0.33;0.20;;;;;;;2.77;81.12;97841.05;1767473;80;21631;-55
2022/02/18 05:09:54;;;;;;;0.30;0.10;;;;;;;2.73;81.13;97849.62;1768114;78;21111;-57
2022/02/18 05:12:22;;;;;;;0.40;0.10;;;;;;;2.73;81.17;97855.39;1768300;80;21105;-56
2022/02/18 05:14:51;;;;;;;0.37;0.20;;;;;;;2.71;81.17;97862.14;1763404;80;21031;-59
2022/02/18 05:17:17;;;;;;;0.40;0.20;;;;;;;2.72;81.19;97863.00;1764286;78;21077;-56
2022/02/18 05:19:43;;;;;;;0.30;0.13;;;;;;;2.74;81.10;97879.23;1767568;78;21126;-55
2022/02/18 05:22:10;;;;;;;0.40;0.20;;;;;;;2.75;81.04;97882.30;1768860;80;21069;-56
2022/02/18 05:24:37;;;;;;;0.37;0.20;;;;;;;2.76;81.04;97881.83;1767854;78;21125;-56
2022/02/18 05:27:05;;;;;;;0.30;0.20;;;;;;;2.76;81.00;97890.66;1772210;80;21021;-55
2022/02/18 05:29:35;;;;;;;0.30;0.10;;;;;;;2.76;80.90;97901.77;1770575;80;21026;-56
2022/02/18 05:32:02;;;;;;;0.50;0.30;;;;;;;2.74;80.87;97908.47;1766237;80;21794;-58
2022/02/18 05:34:28;;;;;;;0.47;0.30;;;;;;;2.73;80.84;97912.05;1767535;80;21503;-56
2022/02/18 05:36:55;;;;;;;0.30;0.20;;;;;;;2.72;80.81;97922.31;1765733;80;21140;-58
2022/02/18 05:39:21;;;;;;;0.70;0.30;;;;;;;2.72;80.85;97927.63;1764446;80;21087;-57
2022/02/18 05:41:47;;;;;;;3.03;0.30;;;;;;;2.74;80.90;97926.20;1768150;79;21525;-56
2022/02/18 05:44:14;;;;;;;0.40;0.30;;;;;;;2.75;80.95;97931.91;1766345;79;21627;-54
2022/02/18 05:46:40;;;;;;;0.30;0.20;;;;;;;2.78;80.98;97938.42;1762648;80;21105;-56
2022/02/18 05:49:07;;;;;;;0.53;0.30;;;;;;;2.81;80.98;97939.59;1770663;79;21496;-54
2022/02/18 05:51:34;;;;;;;0.60;0.20;;;;;;;2.84;81.00;97943.45;1769506;80;21109;-58
2022/02/18 05:54:01;;;;;;;0.50;0.30;;;;;;;2.89;80.92;97946.78;1767481;80;21117;-56
2022/02/18 05:56:28;;;;;;;1.87;0.23;;;;;;;2.90;80.86;97953.33;1770709;79;21168;-55
2022/02/18 05:58:54;;;;;;;0.70;0.40;;;;;;;2.93;80.82;97954.52;1768821;80;21125;-59
2022/02/18 06:01:21;;;;;;;1.63;0.50;;;;;;;2.94;80.78;97957.58;1766243;80;21095;-58
2022/02/18 06:03:48;;;;;;;1.30;0.40;;;;;;;2.95;80.75;97957.98;1765914;80;21097;-57
2022/02/18 06:06:16;;;;;;;0.87;0.50;;;;;;;2.95;80.67;97971.73;1770649;80;21054;-55
2022/02/18 06:08:43;;;;;;;0.73;0.40;;;;;;;2.94;80.67;97969.54;1770993;80;21797;-55
2022/02/18 06:11:10;;;;;;;0.70;0.40;;;;;;;2.95;80.63;97975.26;1768567;80;21613;-54
2022/02/18 06:13:36;;;;;;;1.33;0.50;;;;;;;2.98;80.64;97984.86;1768975;80;21599;-56
2022/02/18 06:16:02;;;;;;;0.63;0.50;;;;;;;3.02;80.69;97986.46;1769347;80;21045;-54
2022/02/18 06:18:30;;;;;;;1.10;0.40;;;;;;;3.07;80.58;97998.20;1765446;80;21152;-57
2022/02/18 06:20:58;;;;;;;1.73;0.60;;;;;;;3.09;80.48;97999.86;1766764;80;21069;-54
2022/02/18 06:23:24;;;;;;;1.60;0.50;;;;;;;3.11;80.30;98001.12;1769029;78;22343;-57
2022/02/18 06:27:43;;;;;;;0.70;0.60;;;;;;;3.12;80.15;98005.05;1788732;78;27343;-56
2022/02/18 06:30:11;;;;;;;0.50;0.50;;;;;;;3.04;80.08;98010.72;1770436;79;20879;-55
2022/02/18 06:32:38;;;;;;;1.33;0.40;;;;;;;3.02;80.05;98011.25;1772801;79;21111;-55
2022/02/18 06:35:05;;;;;;;0.97;0.40;;;;;;;3.04;80.01;98021.36;1772509;79;20851;-56
2022/02/18 06:37:32;;;;;;;0.53;0.40;;;;;;;3.06;80.08;98023.95;1771478;79;20914;-55
2022/02/18 06:39:58;;;;;;;0.47;0.20;;;;;;;3.10;80.22;98021.99;1774113;79;20961;-55
2022/02/18 06:42:24;;;;;;;0.40;0.27;;;;;;;3.15;80.16;98024.00;1772304;79;20927;-57
2022/02/18 06:44:51;;;;;;;0.30;0.20;;;;;;;3.19;80.19;98036.20;1768745;79;20926;-54
2022/02/18 06:47:17;;;;;;;0.40;0.30;;;;;;;3.25;80.23;98035.91;1773455;79;21416;-55
2022/02/18 06:49:44;;;;;;;0.80;0.33;;;;;;;3.33;80.10;98041.73;1772487;79;21385;-55
2022/02/18 06:52:11;;;;;;;0.50;0.30;;;;;;;3.36;79.87;98046.45;1775508;79;21408;-58
2022/02/18 06:54:37;;;;;;;0.40;0.20;;;;;;;3.38;79.62;98053.91;1775063;79;21368;-57
2022/02/18 06:57:05;;;;;;;0.37;0.30;;;;;;;3.38;79.47;98052.58;1775774;79;21101;-54
2022/02/18 06:59:32;;;;;;;0.50;0.30;;;;;;;3.37;79.44;98052.17;1779111;79;20938;-59
2022/02/18 07:01:58;;;;;;;0.40;0.20;;;;;;;3.40;79.40;98057.83;1774841;79;20943;-55
2022/02/18 07:04:25;;;;;;;0.50;0.30;;;;;;;3.46;79.25;98063.32;1771296;80;20998;-57
2022/02/18 07:06:51;;;;;;;0.40;0.30;;;;;;;3.53;79.21;98068.75;1718438;81;21142;-58
2022/02/18 07:09:19;;;;;;;1.13;0.30;;;;;;;3.61;79.25;98066.13;1739808;81;21142;-57
2022/02/18 07:11:45;;;;;;;1.30;0.40;;;;;;;3.72;79.27;98074.47;1714471;81;21543;-58
2022/02/18 07:14:12;;;;;;;0.40;0.30;;;;;;;3.84;79.23;98072.14;1712117;83;22543;-58
2022/02/18 07:16:42;;;;;;;0.73;0.30;;;;;;;3.96;79.06;98077.76;1736093;81;21096;-58
2022/02/18 07:19:13;;;;;;;0.67;0.30;;;;;;;4.06;78.53;98085.70;1740328;81;20987;-56
2022/02/18 07:21:39;;;;;;;0.90;0.40;;;;;;;4.11;78.09;98085.46;1739064;81;21533;-57
2022/02/18 07:24:09;;;;;;;0.60;0.40;;;;;;;4.16;77.78;98085.66;1740466;81;21718;-57
2022/02/18 07:26:36;;;;;;;0.33;0.20;;;;;;;4.19;77.46;98098.80;1704531;81;20951;-57
2022/02/18 07:29:03;;;;;;;0.70;0.30;;;;;;;4.24;77.02;98104.38;1770773;79;20852;-55
2022/02/18 07:31:29;;;;;;;0.73;0.40;;;;;;;4.28;76.81;98100.15;1768004;80;20993;-55
2022/02/18 07:33:56;;;;;;;0.60;0.30;;;;;;;4.32;76.18;98100.41;1763810;80;21773;-55
2022/02/18 07:36:22;;;;;;;0.70;0.37;;;;;;;4.32;76.06;98105.73;1767093;79;21018;-56
2022/02/18 07:38:49;;;;;;;0.60;0.30;;;;;;;4.34;75.79;98109.66;1767771;79;21053;-56
2022/02/18 07:41:15;;;;;;;1.00;0.30;;;;;;;4.34;75.57;98109.16;1764946;80;21093;-56
2022/02/18 07:43:41;;;;;;;2.17;0.50;;;;;;;4.32;75.35;98113.72;1762723;79;21034;-53
2022/02/18 07:46:08;;;;;;;0.60;0.37;;;;;;;4.29;75.19;98117.86;1767096;80;21213;-55
2022/02/18 07:48:35;;;;;;;1.17;0.50;;;;;;;4.27;75.03;98117.53;1768523;80;21125;-54
2022/02/18 07:51:03;;;;;;;1.50;0.60;;;;;;;4.28;75.19;98120.59;1765985;79;21108;-55
2022/02/18 07:53:29;;;;;;;0.83;0.50;;;;;;;4.30;75.17;98120.92;1761855;80;21433;-53
2022/02/18 07:55:55;;;;;;;1.00;0.40;;;;;;;4.32;75.29;98119.52;1766863;79;21124;-57
2022/02/18 07:58:22;;;;;;;2.83;0.40;;;;;;;4.39;74.99;98120.94;1761786;80;21155;-54
2022/02/18 08:00:50;;;;;;;1.33;0.60;;;;;;;4.43;74.70;98120.70;1766247;79;21041;-55
2022/02/18 08:03:17;;;;;;;1.20;0.40;;;;;;;4.45;74.66;98130.81;1759157;80;20946;-56
2022/02/18 08:05:43;;;;;;;1.13;0.53;;;;;;;4.52;74.49;98124.70;1769060;79;21112;-53
2022/02/18 08:08:10;;;;;;;3.37;0.53;;;;;;;4.56;74.27;98131.63;1760556;79;21157;-53
2022/02/18 08:10:36;;;;;;;0.70;0.43;;;;;;;4.61;74.12;98126.05;1766977;80;21094;-53
2022/02/18 08:13:03;;;;;;;0.73;0.47;;;;;;;4.63;74.00;98128.18;1768959;79;21068;-53
2022/02/18 08:15:30;;;;;;;0.87;0.57;;;;;;;4.63;73.93;98129.52;1770229;80;20954;-54
2022/02/18 08:17:56;;;;;;;1.00;0.40;;;;;;;4.65;73.87;98127.17;1766327;80;21060;-55
2022/02/18 08:20:23;;;;;;;2.10;0.40;;;;;;;4.71;73.86;98133.98;1766699;79;21053;-56
2022/02/18 08:22:51;;;;;;;0.93;0.47;;;;;;;4.78;73.65;98138.06;1765069;80;21147;-55
2022/02/18 08:25:17;;;;;;;2.73;0.30;;;;;;;4.86;73.57;98134.06;1766818;80;21063;-56
2022/02/18 08:27:44;;;;;;;0.70;0.47;;;;;;;4.94;73.37;98144.34;1767828;80;21082;-53
2022/02/18 08:30:12;;;;;;;0.70;0.33;;;;;;;5.01;73.13;98147.58;1770644;80;21061;-57
2022/02/18 08:32:40;;;;;;;2.47;0.40;;;;;;;5.03;72.87;98149.20;1771277;80;21105;-55
2022/02/18 08:35:07;;;;;;;0.80;0.37;;;;;;;5.08;72.85;98151.19;1769182;78;22501;-56
2022/02/18 08:37:34;;;;;;;0.70;0.30;;;;;;;5.10;72.76;98150.64;1774208;79;21023;-53
2022/02/18 08:40:01;;;;;;;0.80;0.30;;;;;;;5.13;72.45;98155.80;1762477;80;21080;-56
2022/02/18 08:42:27;;;;;;;0.60;0.30;;;;;;;5.16;72.50;98166.78;1771681;79;21097;-56
2022/02/18 08:44:55;;;;;;;0.73;0.30;;;;;;;5.22;72.31;98164.66;1773860;80;21032;-53
2022/02/18 08:47:21;;;;;;;0.70;0.40;;;;;;;5.28;72.32;98172.33;1772579;78;21117;-53
2022/02/18 08:49:47;;;;;;;0.97;0.30;;;;;;;5.35;72.20;98178.70;1770644;78;21106;-57
2022/02/18 08:52:14;;;;;;;0.40;0.30;;;;;;;5.38;72.09;98179.39;1773475;80;21510;-53
2022/02/18 08:54:40;;;;;;;0.50;0.30;;;;;;;5.41;72.10;98183.25;1772922;80;22106;-56
2022/02/18 08:57:06;;;;;;;0.60;0.30;;;;;;;5.41;71.81;98181.91;1768243;79;21720;-56
2022/02/18 08:59:33;;;;;;;0.50;0.30;;;;;;;5.39;71.63;98189.13;1771257;78;21402;-53
2022/02/18 09:02:01;;;;;;;1.77;0.30;;;;;;;5.35;71.39;98193.38;1771930;80;20959;-55
2022/02/18 09:04:28;;;;;;;1.67;0.40;;;;;;;5.31;71.29;98185.53;1774065;78;21100;-54
2022/02/18 09:06:54;;;;;;;0.80;0.30;;;;;;;5.30;71.47;98189.13;1769320;78;21527;-54
2022/02/18 09:09:22;;;;;;;0.67;0.27;;;;;;;5.33;71.41;98194.32;1768803;78;21069;-56
2022/02/18 09:11:48;;;;;;;1.90;0.30;;;;;;;5.37;71.41;98192.80;1775143;80;21077;-55
2022/02/18 09:14:18;;;;;;;2.27;0.40;;;;;;;5.41;71.14;98189.05;1769278;78;21065;-54
2022/02/18 09:16:46;;;;;;;0.63;0.33;;;;;;;5.42;70.94;98187.64;1764359;80;21129;-54
2022/02/18 09:19:13;;;;;;;1.33;0.93;;;;;;;5.45;70.86;98199.47;1770408;78;21097;-55
2022/02/18 09:21:40;;;;;;;0.87;0.50;;;;;;;5.48;70.66;98200.66;1776112;79;21093;-54
2022/02/18 09:24:08;;;;;;;1.30;0.40;;;;;;;5.51;70.47;98204.98;1774638;79;21141;-54
2022/02/18 09:26:36;;;;;;;2.20;0.40;;;;;;;5.52;70.60;98205.38;1767489;79;21623;-54
2022/02/18 09:29:02;;;;;;;0.80;0.30;;;;;;;5.53;70.49;98203.94;1759949;79;21090;-53
2022/02/18 09:31:30;;;;;;;1.57;0.40;;;;;;;5.58;70.61;98216.59;1760054;80;21057;-56
2022/02/18 09:33:57;;;;;;;0.80;0.40;;;;;;;5.62;70.40;98209.27;1754939;80;21128;-58
2022/02/18 09:36:23;;;;;;;0.60;0.40;;;;;;;5.68;70.54;98219.17;1759167;79;22953;-57
2022/02/18 09:38:50;;;;;;;2.70;0.60;;;;;;;5.74;70.46;98215.77;1760147;79;21111;-54
2022/02/18 09:41:16;;;;;;;1.63;0.30;;;;;;;5.78;70.34;98221.36;1755444;79;21067;-55
2022/02/18 09:43:42;;;;;;;1.87;0.47;;;;;;;5.80;70.29;98222.11;1759739;80;21083;-57
2022/02/18 09:46:10;;;;;;;0.70;0.40;;;;;;;5.83;70.17;98225.50;1762101;79;21211;-57
2022/02/18 09:48:37;;;;;;;1.17;0.50;;;;;;;5.84;69.76;98233.04;1757740;80;21132;-57
2022/02/18 09:51:04;;;;;;;1.20;0.50;;;;;;;5.84;69.64;98221.89;1759375;80;21038;-54
2022/02/18 09:53:31;;;;;;;1.30;0.50;;;;;;;5.84;69.34;98234.38;1757950;80;21058;-57
2022/02/18 09:55:57;;;;;;;1.00;0.40;;;;;;;5.82;68.98;98231.78;1757999;79;21119;-55
2022/02/18 09:58:24;;;;;;;0.90;0.40;;;;;;;5.82;68.97;98227.77;1759319;80;21108;-58
2022/02/18 10:00:50;;;;;;;0.70;0.40;;;;;;;5.85;68.51;98234.77;1767230;80;21053;-57
2022/02/18 10:03:19;;;;;;;4.10;0.40;;;;;;;5.88;68.15;98231.47;1762816;80;21398;-57
2022/02/18 10:05:46;;;;;;;0.70;0.40;;;;;;;5.92;68.01;98234.39;1763700;80;20922;-58
2022/02/18 10:08:15;;;;;;;1.00;0.40;;;;;;;5.97;67.82;98240.33;1762704;80;20918;-56
2022/02/18 10:11:03;;;;;;;1.13;0.30;;;;;;;6.05;67.89;98235.91;1756279;80;20963;-55
2022/02/18 10:13:38;;;;;;;0.70;0.30;;;;;;;6.11;67.45;98238.74;1759654;80;21382;-55
2022/02/18 10:16:07;;;;;;;0.68;0.40;;;;;;;6.15;67.17;98234.95;1765337;80;20945;-55
2022/02/18 10:18:57;;;;;;;2.33;0.30;;;;;;;6.17;66.79;98241.08;1763055;80;21338;-57
2022/02/18 10:21:30;;;;;;;0.43;0.30;;;;;;;6.17;66.66;98251.29;1765188;79;20856;-55
2022/02/18 10:24:12;;;;;;;1.70;0.37;;;;;;;6.16;66.24;98256.71;1765217;80;21029;-55
2022/02/18 10:26:51;;;;;;;1.53;0.30;;;;;;;6.15;66.18;98252.31;1760080;80;21033;-54
2022/02/18 10:29:24;;;;;;;0.50;0.20;;;;;;;6.15;66.18;98245.16;1763481;80;21073;-54
2022/02/18 10:32:15;;;;;;;0.43;0.30;;;;;;;6.20;65.88;98239.58;1764083;80;20940;-55
2022/02/18 10:34:58;;;;;;;0.67;0.30;;;;;;;6.22;65.69;98245.68;1763659;80;20975;-57
2022/02/18 10:37:27;;;;;;;0.77;0.27;;;;;;;6.27;65.32;98250.32;1761201;80;20876;-56
2022/02/18 10:40:14;;;;;;;0.60;0.30;;;;;;;6.33;65.41;98251.31;1762248;79;21618;-54
2022/02/18 10:42:43;;;;;;;0.70;0.30;;;;;;;6.39;64.92;98251.83;1758328;80;21069;-54
2022/02/18 10:45:16;;;;;;;0.40;0.20;;;;;;;6.43;64.81;98257.88;1765167;79;20934;-56
2022/02/18 10:47:43;;;;;;;0.50;0.30;;;;;;;6.44;64.94;98260.48;1758702;80;20956;-55
2022/02/18 10:50:21;;;;;;;0.87;0.40;;;;;;;6.45;64.93;98274.70;1759384;79;21071;-55
2022/02/18 10:53:16;;;;;;;0.63;0.37;;;;;;;6.41;65.67;98282.02;1764879;80;21148;-56
2022/02/18 10:55:58;;;;;;;0.67;0.20;;;;;;;6.35;66.80;98288.17;1758956;79;20923;-59
2022/02/18 10:58:32;;;;;;;0.40;0.30;;;;;;;6.18;67.99;98297.58;1761619;79;21034;-55
2022/02/18 11:01:20;;;;;;;0.33;0.20;;;;;;;6.01;69.07;98303.34;1759439;80;21579;-56
2022/02/18 11:04:04;;;;;;;0.80;0.20;;;;;;;5.91;70.05;98311.44;1761027;79;21088;-57
2022/02/18 11:06:33;;;;;;;;;;;;;;;5.86;70.87;98315.27;1762475;79;21068;-55
2022/02/18 11:09:09;;;;;;;1.03;0.30;;;;;;;5.83;71.38;98324.30;1758406;79;20457;-55
2022/02/18 11:11:38;;;;;;;0.40;0.27;;;;;;;5.81;71.82;98321.30;1761628;80;21025;-57
2022/02/18 11:14:12;;;;;;;1.07;0.40;;;;;;;5.82;72.28;98326.57;1758120;79;21038;-56
2022/02/18 11:16:46;;;;;;;0.90;0.50;;;;;;;5.86;72.76;98316.14;1755193;79;21066;-57
2022/02/18 11:19:12;;;;;;;0.50;0.30;;;;;;;5.90;73.06;98319.52;1755495;80;21019;-54
2022/02/18 11:21:39;;;;;;;0.80;0.40;;;;;;;5.97;73.16;98325.80;1756260;80;21344;-54
2022/02/18 11:24:07;;;;;;;0.67;0.30;;;;;;;6.00;73.49;98331.46;1756220;79;21073;-56
2022/02/18 11:26:34;;;;;;;0.37;0.10;;;;;;;6.00;73.22;98353.70;1760683;80;21099;-55
2022/02/18 11:29:02;;;;;;;0.30;0.20;;;;;;;5.84;72.47;98362.08;1739605;80;21116;-56
2022/02/18 11:31:42;;;;;;;0.43;0.20;;;;;;;5.66;72.59;98361.67;1738629;80;22328;-56
2022/02/18 11:34:26;;;;;;;0.28;0.10;;;;;;;5.51;72.81;98368.65;1737296;80;21110;-57
2022/02/18 11:37:30;;;;;;;0.10;0.05;;;;;;;5.33;72.87;98369.09;1734150;80;21057;-58
2022/02/18 11:40:14;;;;;;;0.47;0.10;;;;;;;5.10;72.97;98365.81;1739052;81;21053;-57
2022/02/18 11:42:58;;;;;;;0.30;0.10;;;;;;;4.83;73.42;98360.85;1733732;80;21041;-56
2022/02/18 11:45:24;;;;;;;0.30;0.10;;;;;;;4.69;73.89;98367.73;1730267;81;21147;-57
2022/02/18 11:47:50;;;;;;;0.50;0.20;;;;;;;4.65;74.36;98371.03;1737173;81;21316;-55
2022/02/18 11:50:21;;;;;;;0.40;0.10;;;;;;;4.64;74.69;98359.11;1737508;80;21524;-57